createdAt,value
2023-03-07T00:00:30.338Z,99.90
2023-03-07T00:02:58.614Z,99.90
2023-03-07T00:05:26.956Z,99.90
2023-03-07T00:07:56.560Z,99.90
2023-03-07T00:10:24.944Z,99.90
2023-03-07T00:12:53.265Z,99.90
2023-03-07T00:15:21.604Z,99.90
2023-03-07T00:17:49.874Z,99.90
2023-03-07T00:20:18.317Z,99.90
2023-03-07T00:22:47.305Z,99.90
2023-03-07T00:25:17.092Z,99.90
2023-03-07T00:27:45.404Z,99.90
2023-03-07T00:30:13.925Z,99.90
2023-03-07T00:32:42.194Z,99.90
2023-03-07T00:35:10.624Z,99.90
2023-03-07T00:37:38.880Z,99.90
2023-03-07T00:40:09.480Z,99.90
2023-03-07T00:43:03.787Z,99.90
2023-03-07T00:45:58.349Z,99.90
2023-03-07T00:48:27.367Z,99.90
2023-03-07T00:50:56.151Z,99.90
2023-03-07T00:53:49.702Z,99.90
2023-03-07T00:56:47.112Z,99.90
2023-03-07T00:59:16.943Z,99.90
2023-03-07T01:01:45.474Z,99.90
2023-03-07T01:04:13.701Z,99.90
2023-03-07T01:06:41.992Z,99.90
2023-03-07T01:09:10.301Z,99.90
2023-03-07T01:11:39.380Z,99.90
2023-03-07T01:14:08.013Z,99.90
2023-03-07T01:16:38.757Z,99.90
2023-03-07T01:19:09.312Z,99.90
2023-03-07T01:21:39.582Z,99.90
2023-03-07T01:24:09.620Z,99.90
2023-03-07T01:26:38.058Z,99.90
2023-03-07T01:29:07.684Z,99.90
2023-03-07T01:31:37.718Z,99.90
2023-03-07T01:34:06.689Z,99.90
2023-03-07T01:36:36.531Z,99.90
2023-03-07T01:39:07.477Z,99.90
2023-03-07T01:41:38.437Z,99.90
2023-03-07T01:44:18.750Z,99.90
2023-03-07T01:46:52.852Z,99.90
2023-03-07T01:49:27.031Z,99.90
2023-03-07T01:52:02.034Z,99.90
2023-03-07T01:54:33.302Z,99.90
2023-03-07T01:57:03.739Z,99.90
2023-03-07T01:59:34.289Z,99.90
2023-03-07T02:02:08.587Z,99.90
2023-03-07T02:04:43.774Z,99.90
2023-03-07T02:07:12.313Z,99.90
2023-03-07T02:09:41.477Z,99.90
2023-03-07T02:12:11.140Z,99.90
2023-03-07T02:14:39.595Z,99.90
2023-03-07T02:17:09.266Z,99.90
2023-03-07T02:19:48.449Z,99.90
2023-03-07T02:22:18.978Z,99.90
2023-03-07T02:24:53.075Z,99.90
2023-03-07T02:27:25.525Z,99.90
2023-03-07T02:29:54.324Z,99.90
2023-03-07T02:32:22.700Z,99.90
2023-03-07T02:34:51.033Z,99.90
2023-03-07T02:37:45.786Z,99.90
2023-03-07T02:40:17.127Z,99.90
2023-03-07T02:42:48.104Z,99.90
2023-03-07T02:45:19.019Z,99.90
2023-03-07T02:47:47.781Z,99.90
2023-03-07T02:50:17.181Z,99.90
2023-03-07T02:52:45.669Z,99.90
2023-03-07T02:55:29.118Z,99.90
2023-03-07T02:57:58.800Z,99.90
2023-03-07T03:00:27.383Z,99.90
2023-03-07T03:02:55.667Z,99.90
2023-03-07T03:05:24.107Z,99.90
2023-03-07T03:07:52.488Z,99.90
2023-03-07T03:11:00.297Z,99.90
2023-03-07T03:14:19.333Z,99.90
2023-03-07T03:16:49.621Z,99.90
2023-03-07T03:19:17.874Z,99.90
2023-03-07T03:21:46.230Z,99.90
2023-03-07T03:24:14.442Z,99.90
2023-03-07T03:26:42.717Z,99.90
2023-03-07T03:29:11.068Z,99.90
2023-03-07T03:31:39.546Z,99.90
2023-03-07T03:34:09.608Z,99.90
2023-03-07T03:36:37.809Z,99.90
2023-03-07T03:39:55.400Z,99.90
2023-03-07T03:42:23.895Z,99.90
2023-03-07T03:44:52.219Z,99.90
2023-03-07T03:47:20.750Z,99.90
2023-03-07T03:49:50.354Z,99.90
2023-03-07T03:52:18.828Z,99.90
2023-03-07T03:54:47.083Z,99.90
2023-03-07T03:57:17.933Z,99.90
2023-03-07T03:59:46.600Z,99.90
2023-03-07T04:02:14.961Z,99.90
2023-03-07T04:04:43.348Z,99.90
2023-03-07T04:07:12.963Z,99.90
2023-03-07T04:09:41.383Z,99.90
2023-03-07T04:12:10.214Z,99.90
2023-03-07T04:14:38.421Z,99.90
2023-03-07T04:17:07.270Z,99.90
2023-03-07T04:19:35.509Z,99.90
2023-03-07T04:22:03.770Z,99.90
2023-03-07T04:24:33.424Z,99.90
2023-03-07T04:27:01.657Z,99.90
2023-03-07T04:29:30.868Z,99.90
2023-03-07T04:31:59.157Z,99.90
2023-03-07T04:34:27.475Z,99.90
2023-03-07T04:36:55.719Z,99.90
2023-03-07T04:39:24.057Z,99.90
2023-03-07T04:41:53.754Z,99.90
2023-03-07T04:44:22.180Z,99.90
2023-03-07T04:46:55.166Z,99.90
2023-03-07T04:49:23.327Z,99.90
2023-03-07T04:51:51.506Z,99.90
2023-03-07T04:54:19.882Z,99.90
2023-03-07T04:56:48.114Z,99.90
2023-03-07T04:59:18.428Z,99.90
2023-03-07T05:01:47.619Z,99.90
2023-03-07T05:04:15.914Z,99.90
2023-03-07T05:06:44.194Z,99.90
2023-03-07T05:09:12.472Z,99.90
2023-03-07T05:12:05.937Z,99.90
2023-03-07T05:14:35.581Z,99.90
2023-03-07T05:17:03.879Z,99.90
2023-03-07T05:19:32.062Z,99.90
2023-03-07T05:22:08.355Z,99.90
2023-03-07T05:24:36.769Z,99.90
2023-03-07T05:27:05.261Z,99.90
2023-03-07T05:29:34.856Z,99.90
2023-03-07T05:32:03.187Z,99.90
2023-03-07T05:34:31.489Z,99.90
2023-03-07T05:36:59.715Z,99.90
2023-03-07T05:39:28.073Z,99.90
2023-03-07T05:41:56.313Z,99.90
2023-03-07T05:44:24.540Z,99.90
2023-03-07T05:46:54.152Z,99.90
2023-03-07T05:49:22.678Z,99.90
2023-03-07T05:51:50.887Z,99.90
2023-03-07T05:54:44.804Z,99.90
2023-03-07T05:57:13.074Z,99.90
2023-03-07T05:59:41.245Z,99.90
2023-03-07T06:02:10.844Z,99.90
2023-03-07T06:04:39.042Z,99.90
2023-03-07T06:07:07.246Z,99.90
2023-03-07T06:09:35.558Z,99.90
2023-03-07T06:12:04.098Z,99.90
2023-03-07T06:14:32.354Z,99.90
2023-03-07T06:17:01.510Z,99.90
2023-03-07T06:19:31.256Z,99.90
2023-03-07T06:21:59.532Z,99.90
2023-03-07T06:24:27.801Z,99.90
2023-03-07T06:26:56.056Z,99.90
2023-03-07T06:29:24.305Z,99.90
2023-03-07T06:31:52.561Z,99.90
2023-03-07T06:34:20.830Z,99.90
2023-03-07T06:36:50.554Z,99.90
2023-03-07T06:39:21.220Z,99.90
2023-03-07T06:41:49.588Z,99.90
2023-03-07T06:44:28.074Z,99.90
2023-03-07T06:46:56.352Z,99.90
2023-03-07T06:49:24.725Z,99.90
2023-03-07T06:51:54.380Z,99.90
2023-03-07T06:54:22.616Z,99.90
2023-03-07T06:56:51.609Z,99.90
2023-03-07T06:59:19.917Z,99.90
2023-03-07T07:01:49.175Z,99.90
2023-03-07T07:04:17.472Z,99.90
2023-03-07T07:06:45.715Z,99.90
2023-03-07T07:09:15.369Z,99.90
2023-03-07T07:11:43.672Z,99.90
2023-03-07T07:14:11.869Z,99.90
2023-03-07T07:16:41.012Z,99.90
2023-03-07T07:19:10.376Z,99.90
2023-03-07T07:21:42.211Z,99.90
2023-03-07T07:24:13.590Z,99.90
2023-03-07T07:26:43.258Z,99.90
2023-03-07T07:29:11.916Z,99.90
2023-03-07T07:31:40.325Z,99.90
2023-03-07T07:34:08.733Z,99.90
2023-03-07T07:36:36.998Z,99.90
2023-03-07T07:39:06.085Z,99.90
2023-03-07T07:41:35.232Z,99.90
2023-03-07T07:44:04.865Z,99.90
2023-03-07T07:46:33.163Z,99.90
2023-03-07T07:49:01.377Z,99.90
2023-03-07T07:51:29.581Z,99.90
2023-03-07T07:53:57.745Z,99.90
2023-03-07T07:56:26.054Z,99.90
2023-03-07T07:58:54.383Z,99.90
2023-03-07T08:01:25.769Z,99.90
2023-03-07T08:03:54.009Z,99.90
2023-03-07T08:06:24.068Z,99.90
2023-03-07T08:08:52.338Z,99.90
2023-03-07T08:11:21.517Z,99.90
2023-03-07T08:13:49.803Z,99.90
2023-03-07T08:16:20.006Z,99.90
2023-03-07T08:18:53.348Z,99.90
2023-03-07T08:21:22.346Z,99.90
2023-03-07T08:23:50.900Z,99.90
2023-03-07T08:26:19.404Z,99.90
2023-03-07T08:28:47.953Z,99.90
2023-03-07T08:31:23.559Z,99.90
2023-03-07T08:33:54.137Z,99.90
2023-03-07T08:36:47.804Z,99.90
2023-03-07T08:39:16.076Z,99.60
2023-03-07T08:41:44.323Z,99.90
2023-03-07T08:44:12.597Z,99.90
2023-03-07T08:46:40.876Z,99.30
2023-03-07T08:49:10.604Z,98.70
2023-03-07T08:51:38.859Z,96.30
2023-03-07T08:54:07.165Z,96.50
2023-03-07T08:56:35.483Z,97.00
2023-03-07T08:59:03.672Z,97.40
2023-03-07T09:01:35.890Z,95.70
2023-03-07T09:04:05.102Z,95.70
2023-03-07T09:06:34.682Z,96.00
2023-03-07T09:09:02.897Z,95.10
2023-03-07T09:11:55.748Z,92.60
2023-03-07T09:14:23.942Z,90.80
2023-03-07T09:16:52.301Z,90.10
2023-03-07T09:19:20.670Z,89.00
2023-03-07T09:21:50.236Z,85.50
2023-03-07T09:24:18.535Z,83.00
2023-03-07T09:26:46.844Z,86.10
2023-03-07T09:29:15.126Z,81.40
2023-03-07T09:31:44.297Z,80.80
2023-03-07T09:34:12.839Z,85.20
2023-03-07T09:36:41.213Z,80.20
2023-03-07T09:39:14.578Z,80.80
2023-03-07T09:42:02.655Z,76.80
2023-03-07T09:44:47.625Z,71.90
2023-03-07T09:47:34.807Z,74.00
2023-03-07T09:50:04.865Z,74.50
2023-03-07T09:52:38.374Z,71.80
2023-03-07T09:55:13.386Z,71.80
2023-03-07T09:57:50.317Z,72.50
2023-03-07T10:00:23.727Z,72.90
2023-03-07T10:02:56.931Z,72.40
2023-03-07T10:05:31.616Z,70.40
2023-03-07T10:08:01.596Z,68.50
2023-03-07T10:10:39.695Z,68.60
2023-03-07T10:13:26.230Z,66.40
2023-03-07T10:15:56.983Z,67.40
2023-03-07T10:18:57.061Z,68.60
2023-03-07T10:21:32.940Z,67.80
2023-03-07T10:24:24.675Z,66.10
2023-03-07T10:27:01.520Z,68.00
2023-03-07T10:29:35.999Z,65.60
2023-03-07T10:32:15.968Z,67.10
2023-03-07T10:34:44.312Z,67.50
2023-03-07T10:37:17.685Z,66.10
2023-03-07T10:39:50.753Z,65.40
2023-03-07T10:42:22.899Z,65.90
2023-03-07T10:44:52.528Z,65.30
2023-03-07T10:47:23.379Z,65.40
2023-03-07T10:50:20.626Z,65.40
2023-03-07T10:52:53.624Z,64.20
2023-03-07T10:55:39.874Z,64.60
2023-03-07T10:58:21.718Z,66.10
2023-03-07T11:01:18.353Z,65.40
2023-03-07T11:03:54.917Z,63.90
2023-03-07T11:06:33.668Z,64.30
2023-03-07T11:09:17.441Z,63.50
2023-03-07T11:11:51.770Z,64.00
2023-03-07T11:14:22.999Z,64.10
2023-03-07T11:16:53.580Z,64.80
2023-03-07T11:19:34.105Z,65.00
2023-03-07T11:22:05.355Z,64.50
2023-03-07T11:24:38.151Z,60.60
2023-03-07T11:27:07.203Z,62.20
2023-03-07T11:30:08.941Z,63.10
2023-03-07T11:32:41.169Z,63.50
2023-03-07T11:35:19.116Z,64.40
2023-03-07T11:37:56.407Z,64.40
2023-03-07T11:40:26.909Z,64.80
2023-03-07T11:43:06.592Z,65.20
2023-03-07T11:45:43.403Z,64.60
2023-03-07T11:48:28.376Z,63.70
2023-03-07T11:50:58.518Z,63.50
2023-03-07T11:53:39.226Z,64.10
2023-03-07T11:56:22.694Z,64.50
2023-03-07T11:59:15.597Z,65.80
2023-03-07T12:01:52.718Z,66.60
2023-03-07T12:04:47.344Z,63.70
2023-03-07T12:07:33.250Z,62.70
2023-03-07T12:10:11.330Z,64.00
2023-03-07T12:12:52.564Z,64.60
2023-03-07T12:15:33.551Z,64.60
2023-03-07T12:18:42.415Z,62.70
2023-03-07T12:21:27.438Z,62.20
2023-03-07T12:24:00.706Z,62.40
2023-03-07T12:26:36.447Z,61.70
2023-03-07T12:29:12.208Z,61.30
2023-03-07T12:31:44.791Z,61.00
2023-03-07T12:34:20.238Z,59.50
2023-03-07T12:36:52.626Z,59.60
2023-03-07T12:39:24.169Z,59.20
2023-03-07T12:42:02.993Z,58.60
2023-03-07T12:44:37.453Z,59.50
2023-03-07T12:47:14.436Z,60.10
2023-03-07T12:49:53.111Z,59.40
2023-03-07T12:52:33.185Z,60.10
2023-03-07T12:55:08.721Z,59.90
2023-03-07T12:57:43.724Z,59.70
2023-03-07T13:00:17.574Z,59.80
2023-03-07T13:02:54.189Z,58.20
2023-03-07T13:05:24.240Z,58.50
2023-03-07T13:07:53.534Z,56.00
2023-03-07T13:10:23.775Z,56.60
2023-03-07T13:12:53.030Z,56.60
2023-03-07T13:16:00.111Z,57.00
2023-03-07T13:19:28.391Z,57.00
2023-03-07T13:21:58.056Z,58.60
2023-03-07T13:24:37.691Z,59.40
2023-03-07T13:27:56.613Z,60.70
2023-03-07T13:30:26.309Z,59.40
2023-03-07T13:33:00.103Z,57.70
2023-03-07T13:35:57.056Z,57.60
2023-03-07T13:38:45.029Z,58.30
2023-03-07T13:41:14.503Z,58.80
2023-03-07T13:44:02.709Z,59.00
2023-03-07T13:46:51.953Z,59.00
2023-03-07T13:49:46.985Z,58.90
2023-03-07T13:52:37.720Z,59.60
2023-03-07T13:55:26.962Z,59.70
2023-03-07T13:57:58.524Z,60.20
2023-03-07T14:00:38.496Z,60.50
2023-03-07T14:03:26.475Z,61.70
2023-03-07T14:05:57.609Z,61.90
2023-03-07T14:08:31.191Z,61.50
2023-03-07T14:11:01.395Z,62.50
2023-03-07T14:14:06.779Z,62.40
2023-03-07T14:16:57.011Z,61.90
2023-03-07T14:19:45.313Z,61.40
2023-03-07T14:22:23.492Z,61.00
2023-03-07T14:25:07.655Z,61.20
2023-03-07T14:28:06.369Z,61.50
2023-03-07T14:30:35.662Z,61.60
2023-03-07T14:33:42.130Z,61.10
2023-03-07T14:36:20.050Z,61.40
2023-03-07T14:38:50.607Z,61.40
2023-03-07T14:41:38.027Z,61.40
2023-03-07T14:44:38.338Z,62.00
2023-03-07T14:47:20.604Z,62.00
2023-03-07T14:49:55.800Z,61.90
2023-03-07T14:52:31.183Z,62.40
2023-03-07T14:55:03.069Z,62.40
2023-03-07T14:57:34.805Z,62.10
2023-03-07T15:00:16.920Z,62.40
2023-03-07T15:02:49.964Z,62.40
2023-03-07T15:05:19.694Z,62.40
2023-03-07T15:08:18.028Z,62.10
2023-03-07T15:10:51.090Z,62.30
2023-03-07T15:13:25.562Z,62.60
2023-03-07T15:16:16.842Z,63.00
2023-03-07T15:18:49.844Z,62.80
2023-03-07T15:21:21.455Z,63.20
2023-03-07T15:23:55.173Z,63.70
2023-03-07T15:26:26.499Z,63.90
2023-03-07T15:29:01.002Z,63.40
2023-03-07T15:31:33.009Z,63.10
2023-03-07T15:34:12.566Z,62.80
2023-03-07T15:36:40.883Z,63.70
2023-03-07T15:39:34.660Z,63.60
2023-03-07T15:42:06.096Z,63.60
2023-03-07T15:44:34.819Z,62.90
2023-03-07T15:47:17.004Z,61.50
2023-03-07T15:49:47.545Z,61.30
2023-03-07T15:52:30.315Z,61.10
2023-03-07T15:55:00.066Z,60.50
2023-03-07T15:57:50.576Z,60.50
2023-03-07T16:00:24.521Z,59.30
2023-03-07T16:02:55.198Z,58.70
2023-03-07T16:05:33.016Z,58.40
2023-03-07T16:08:01.259Z,57.80
2023-03-07T16:10:32.957Z,57.80
2023-03-07T16:13:02.187Z,58.10
2023-03-07T16:15:30.658Z,58.20
2023-03-07T16:18:00.237Z,58.20
2023-03-07T16:20:29.826Z,58.40
2023-03-07T16:22:58.416Z,58.50
2023-03-07T16:25:29.719Z,58.40
2023-03-07T16:27:59.914Z,58.10
2023-03-07T16:30:30.154Z,58.30
2023-03-07T16:32:59.770Z,58.30
2023-03-07T16:35:59.124Z,58.60
2023-03-07T16:38:27.305Z,58.70
2023-03-07T16:40:55.560Z,59.10
2023-03-07T16:43:34.890Z,59.90
2023-03-07T16:46:04.702Z,59.60
2023-03-07T16:48:34.941Z,59.60
2023-03-07T16:51:04.317Z,59.70
2023-03-07T16:53:32.574Z,59.70
2023-03-07T16:56:01.631Z,60.00
2023-03-07T16:58:34.985Z,59.90
2023-03-07T17:01:03.392Z,59.80
2023-03-07T17:03:33.120Z,62.60
2023-03-07T17:06:01.393Z,64.70
2023-03-07T17:08:29.593Z,66.30
2023-03-07T17:10:57.882Z,67.60
2023-03-07T17:13:26.258Z,69.00
2023-03-07T17:15:54.676Z,70.60
2023-03-07T17:18:23.316Z,73.60
2023-03-07T17:20:52.959Z,75.40
2023-03-07T17:23:22.310Z,77.50
2023-03-07T17:25:50.677Z,79.40
2023-03-07T17:28:20.468Z,81.20
2023-03-07T17:30:49.976Z,82.70
2023-03-07T17:33:18.378Z,84.30
2023-03-07T17:35:46.742Z,85.90
2023-03-07T17:38:16.356Z,87.30
2023-03-07T17:40:44.875Z,88.00
2023-03-07T17:43:13.603Z,88.70
2023-03-07T17:45:41.831Z,89.70
2023-03-07T17:48:10.123Z,90.20
2023-03-07T17:50:38.377Z,90.50
2023-03-07T17:53:06.560Z,91.10
2023-03-07T17:55:37.491Z,91.10
2023-03-07T17:58:08.419Z,91.50
2023-03-07T18:00:37.139Z,91.90
2023-03-07T18:03:05.935Z,92.60
2023-03-07T18:05:34.278Z,93.30
2023-03-07T18:08:02.552Z,93.80
2023-03-07T18:10:30.753Z,94.20
2023-03-07T18:13:00.282Z,94.40
2023-03-07T18:15:28.833Z,94.70
2023-03-07T18:18:01.017Z,95.00
2023-03-07T18:20:29.795Z,95.10
2023-03-07T18:22:57.986Z,95.30
2023-03-07T18:25:26.215Z,95.40
2023-03-07T18:28:04.456Z,95.60
2023-03-07T18:30:34.188Z,95.60
2023-03-07T18:33:02.449Z,95.80
2023-03-07T18:35:30.726Z,95.60
2023-03-07T18:37:59.987Z,95.90
2023-03-07T18:40:28.242Z,95.90
2023-03-07T18:42:59.415Z,95.90
2023-03-07T18:45:29.410Z,96.10
2023-03-07T18:47:57.757Z,96.30
2023-03-07T18:50:30.458Z,96.40
2023-03-07T18:52:59.750Z,96.50
2023-03-07T18:55:28.144Z,96.80
2023-03-07T18:57:56.445Z,97.20
2023-03-07T19:00:24.996Z,97.60
2023-03-07T19:02:54.659Z,97.80
2023-03-07T19:05:22.883Z,98.20
2023-03-07T19:07:51.253Z,98.40
2023-03-07T19:10:19.645Z,98.70
2023-03-07T19:12:48.091Z,99.00
2023-03-07T19:15:16.449Z,99.40
2023-03-07T19:17:45.101Z,99.70
2023-03-07T19:20:15.688Z,99.90
2023-03-07T19:22:43.889Z,99.90
2023-03-07T19:25:12.505Z,99.90
2023-03-07T19:27:40.734Z,99.90
2023-03-07T19:30:11.335Z,99.90
2023-03-07T19:32:39.584Z,99.90
2023-03-07T19:35:27.740Z,99.90
2023-03-07T19:37:56.000Z,99.90
2023-03-07T19:40:26.813Z,99.90
2023-03-07T19:42:55.253Z,99.90
2023-03-07T19:45:23.550Z,99.90
2023-03-07T19:47:51.750Z,99.90
2023-03-07T19:50:24.146Z,99.90
2023-03-07T19:52:53.798Z,99.90
2023-03-07T19:55:22.034Z,99.90
2023-03-07T19:57:50.250Z,99.90
2023-03-07T20:00:22.656Z,99.90
2023-03-07T20:02:50.879Z,99.90
2023-03-07T20:05:19.374Z,99.90
2023-03-07T20:07:47.664Z,99.90
2023-03-07T20:10:17.707Z,99.90
2023-03-07T20:12:45.967Z,99.90
2023-03-07T20:15:14.225Z,99.90
2023-03-07T20:17:42.507Z,99.90
2023-03-07T20:20:12.114Z,99.90
2023-03-07T20:22:41.347Z,99.90
2023-03-07T20:25:10.428Z,99.90
2023-03-07T20:27:41.211Z,99.90
2023-03-07T20:30:10.869Z,99.90
2023-03-07T20:32:39.117Z,99.90
2023-03-07T20:35:07.774Z,99.90
2023-03-07T20:37:36.138Z,99.90
2023-03-07T20:40:29.485Z,99.90
2023-03-07T20:43:00.991Z,99.90
2023-03-07T20:45:29.274Z,99.90
2023-03-07T20:47:57.453Z,99.90
2023-03-07T20:50:25.660Z,99.90
2023-03-07T20:52:53.972Z,99.90
2023-03-07T20:55:22.215Z,99.90
2023-03-07T20:57:50.521Z,99.90
2023-03-07T21:00:21.301Z,99.90
2023-03-07T21:02:56.852Z,99.90
2023-03-07T21:05:58.982Z,99.90
2023-03-07T21:08:29.381Z,99.90
2023-03-07T21:11:22.079Z,99.90
2023-03-07T21:14:15.773Z,99.90
2023-03-07T21:16:45.528Z,99.90
2023-03-07T21:19:14.324Z,99.90
2023-03-07T21:21:42.721Z,99.90
2023-03-07T21:24:13.145Z,99.90
2023-03-07T21:26:41.372Z,99.90
2023-03-07T21:29:10.820Z,99.90
2023-03-07T21:31:39.231Z,99.90
2023-03-07T21:34:11.752Z,99.90
2023-03-07T21:36:40.209Z,99.90
2023-03-07T21:39:13.078Z,99.90
2023-03-07T21:41:41.665Z,99.90
2023-03-07T21:44:10.724Z,99.90
2023-03-07T21:46:39.091Z,99.90
2023-03-07T21:49:08.848Z,99.90
2023-03-07T21:51:42.700Z,99.90
2023-03-07T21:54:10.976Z,99.90
2023-03-07T21:56:39.151Z,99.90
2023-03-07T21:59:07.408Z,99.90
2023-03-07T22:01:35.649Z,99.90
2023-03-07T22:04:04.045Z,99.90
2023-03-07T22:06:33.754Z,99.90
2023-03-07T22:09:01.966Z,99.90
2023-03-07T22:11:30.213Z,99.90
2023-03-07T22:13:58.414Z,99.90
2023-03-07T22:16:26.694Z,99.90
2023-03-07T22:18:55.915Z,99.90
2023-03-07T22:21:26.664Z,99.90
2023-03-07T22:23:58.080Z,99.90
2023-03-07T22:26:27.670Z,99.90
2023-03-07T22:28:56.342Z,99.90
2023-03-07T22:31:25.059Z,99.90
2023-03-07T22:33:53.629Z,99.90
2023-03-07T22:36:22.464Z,99.90
2023-03-07T22:38:56.398Z,99.90
2023-03-07T22:41:25.699Z,99.90
2023-03-07T22:43:54.332Z,99.90
2023-03-07T22:46:22.853Z,99.90
2023-03-07T22:48:53.858Z,99.90
2023-03-07T22:51:22.608Z,99.90
2023-03-07T22:53:51.538Z,99.90
2023-03-07T22:56:22.906Z,99.90
2023-03-07T22:58:51.490Z,99.90
2023-03-07T23:01:21.346Z,99.90
2023-03-07T23:03:50.280Z,99.90
2023-03-07T23:06:19.419Z,99.90
2023-03-07T23:08:49.698Z,99.90
2023-03-07T23:11:19.296Z,99.90
2023-03-07T23:13:49.032Z,99.90
2023-03-07T23:16:19.543Z,99.90
2023-03-07T23:18:50.611Z,99.90
2023-03-07T23:21:20.491Z,99.90
2023-03-07T23:23:49.046Z,99.90
2023-03-07T23:26:36.902Z,99.90
2023-03-07T23:29:07.684Z,99.90
2023-03-07T23:31:38.230Z,99.90
2023-03-07T23:34:08.154Z,99.90
2023-03-07T23:36:36.514Z,99.90
2023-03-07T23:39:05.349Z,99.90
2023-03-07T23:41:33.589Z,99.90
2023-03-07T23:44:02.536Z,99.90
2023-03-07T23:46:32.771Z,99.90
2023-03-07T23:49:01.204Z,99.90
2023-03-07T23:51:29.629Z,99.90
2023-03-07T23:53:57.874Z,99.90
2023-03-07T23:56:26.145Z,99.90
2023-03-07T23:58:54.895Z,99.90
